Username:

Password:

Remember / Register
Jezyk polski English Nederlands Portuguese Spanish
Promoted fansite
Facebook Twitter Tibia Tunnel

2735
15390
5570
Share exp with lvls 345-778

Sias Paralyzer

Check at Tibia.com
Nationality: - Set nationality
Vocation: Elder Druid
Level: 518 (~2,289,844,700exp)
World: Wintera
Guild: -
Account status: Premium Account
Online: offline
Last month Current month Current week Mon Tue Wed Thu Fri Sat Sun
40h 30min 69h 0 0 0 0 0 0 0 0

# When Time online Lvl
1 11-09-2016 23h 15min 358

# When Killed by Lvl Exp lost(*)
1 02-11-2018 05:09 earth 503 -20,741,566
2 22-09-2018 06:10 Gaz'haragoth 503 -20,741,566
3 16-09-2018 01:49 a draken spellweaver 503 -20,741,566
4 21-07-2018 22:44 a true dawnfire asura 500 -20,382,284
5 26-04-2018 17:14 a behemoth 485 -18,647,921
6 23-04-2018 23:16 a moohtant 486 -18,760,364
7 15-04-2018 18:31 a glooth golem 484 -18,535,928
8 10-04-2018 22:27 a high voltage elemental 484 -18,535,928
9 09-04-2018 21:30 a diremaw 484 -18,535,928
10 06-03-2018 03:34 an execowtioner 462 -16,184,034
11 04-03-2018 04:16 a glooth golem 461 -16,082,136
12 17-02-2018 21:20 a glooth powered minotaur 457 -15,678,815
13 16-02-2018 19:55 a diremaw 457 -15,678,815
14 15-02-2018 18:20 a drillworm 457 -15,678,815
15 09-02-2018 00:34 The fire empowered Duke 454 -15,380,784
16 01-02-2018 03:37 a hideous fungus 451 -15,086,550
17 26-01-2018 17:10 a behemoth 450 -14,989,311
18 10-01-2018 00:06 a spidris elite 446 -14,604,530
19 15-12-2017 04:34 an elder wyrm 435 -13,580,411
20 07-12-2017 23:55 a hellhound 433 -13,399,504
21 07-12-2017 19:49 a diremaw 433 -13,399,504
22 07-12-2017 05:16 a diremaw 433 -13,399,504
23 06-12-2017 03:15 Jaul 433 -13,399,504
24 26-11-2017 23:20 a devourer 429 -13,042,517
25 26-11-2017 19:25 a glooth anemone 429 -13,042,517
26 12-11-2017 15:23 a moohtant 425 -12,691,919
27 10-11-2017 14:59 Omrafir 425 -12,691,919
28 26-10-2017 02:42 a drillworm 420 -12,262,568
29 19-10-2017 00:32 a glooth anemone 420 -12,262,568
30 27-09-2017 01:22 a glooth golem 414 -11,760,246
31 23-09-2017 20:47 a metal gargoyle 412 -11,595,902
32 19-09-2017 00:31 a devourer 412 -11,595,902
33 17-09-2017 21:00 a glooth golem 412 -11,595,902
34 17-09-2017 17:35 a behemoth 413 -11,677,882
35 15-09-2017 01:16 an elder wyrm 412 -11,595,902
36 13-09-2017 03:39 a lost berserker 412 -11,595,902
37 10-09-2017 22:42 an elder wyrm 412 -11,595,902
38 09-09-2017 05:19 earth 409 -11,352,263
39 02-09-2017 02:31 a glooth anemone 403 -10,875,256
40 08-05-2017 02:57 the shielded thorn knight 392 -10,035,749
41 07-05-2017 01:22 a lizard high guard 392 -10,035,749
42 06-05-2017 19:36 a lizard high guard 390 -9,887,904
43 12-02-2017 16:57 a glooth anemone 377 -8,962,103
44 04-02-2017 16:17 Omrafir 378 -9,031,178
45 24-01-2017 04:07 The First Dragon 378 -9,031,178
46 13-01-2017 21:40 a vampire 375 -8,825,009
47 28-12-2016 22:13 a thorn minion 376 -8,893,380
48 13-12-2016 16:35 a glooth brigand 374 -8,756,988
49 10-12-2016 04:12 a glooth brigand 375 -8,825,009
50 04-12-2016 21:30 a lost basher 374 -8,756,988
51 28-11-2016 23:40 a quara constrictor 374 -8,756,988
52 27-11-2016 05:50 a breach brood 375 -8,825,009
53 14-11-2016 17:23 a bane of light 369 -8,422,115
54 08-11-2016 02:39 Plagirath 370 -8,488,395
55 24-10-2016 23:26 a wiggler 368 -8,356,180
56 16-10-2016 00:52 a guzzlemaw 368 -8,356,180
57 22-08-2016 05:30 an enthralled demon 351 -7,287,240
58 01-07-2016 03:41 a lizard high guard 343 -6,817,390
59 26-06-2016 17:18 Jaul 345 -6,932,903
60 25-06-2016 22:21 a hero 344 -6,874,985
61 25-06-2016 19:54 a vexclaw 344 -6,874,985
62 22-06-2016 16:31 a glooth anemone 344 -6,874,985
63 07-06-2016 04:54 a retching horror 341 -6,703,164
64 06-06-2016 05:16 a devourer 342 -6,760,116
65 03-06-2016 00:51 a devourer 342 -6,760,116
66 29-05-2016 01:45 a demon 343 -6,817,390
67 27-05-2016 06:01 a disgusting ooze 342 -6,760,116
68 21-04-2016 06:07 Zamulosh 334 -6,313,410
69 08-04-2016 00:57 a grim reaper 334 -6,313,410
70 30-03-2016 20:36 a vexclaw 334 -6,313,410
71 29-03-2016 05:02 eruption of destruction 335 -6,368,141
72 28-02-2016 00:52 Mahrdis 325 -5,834,849
73 22-02-2016 03:57 a spidris 327 -5,939,033
74 21-02-2016 02:50 a deepling tyrant 326 -5,886,788
75 08-02-2016 20:41 a hive overseer 325 -5,834,849
76 20-01-2016 02:52 an Earth Overlord 325 -5,834,849
77 24-11-2015 20:16 a lizard high guard 321 -5,630,142
78 22-11-2015 22:18 a glooth anemone 319 -5,529,605
79 18-11-2015 07:36 a serpent spawn 314 -5,283,501
80 27-10-2015 21:56 a choking fear 316 -5,381,049
81 21-09-2015 00:09 a giant spider 299 -4,589,111
82 20-09-2015 03:15 an insectoid worker 299 -4,589,111
83 07-09-2015 09:31 a medusa 293 -4,329,310
84 31-08-2015 06:00 a spitter 289 -4,161,659
85 31-08-2015 05:45 a waspoid 290 -4,203,159
86 27-08-2015 02:49 a lost basher 287 -4,079,477
87 21-08-2015 02:08 a minion of Gaz'haragoth 282 -3,878,757
88 20-08-2015 19:43 a draken spellweaver 283 -3,918,364
89 12-08-2015 14:39 an energy elemental 278 -3,722,993
90 06-08-2015 06:49 a draken spellweaver 278 -3,722,993
91 05-08-2015 18:48 a guzzlemaw 276 -3,646,695
92 05-08-2015 02:46 a weeper 277 -3,684,713
93 03-08-2015 02:30 a lizard high guard 278 -3,722,993
94 02-08-2015 22:49 a draken spellweaver 277 -3,684,713
95 02-08-2015 00:11 a draken warmaster 276 -3,646,695
96 01-08-2015 23:11 a draken spellweaver 277 -3,684,713
97 01-08-2015 21:48 a draken spellweaver 278 -3,722,993
98 01-08-2015 10:52 a lizard high guard 277 -3,684,713
99 01-08-2015 09:34 a lizard high guard 278 -3,722,993
100 01-08-2015 08:38 a draken warmaster 279 -3,761,537
101 30-07-2015 00:38 a lizard legionnaire 278 -3,722,993
102 15-07-2015 03:13 a lizard high guard 272 -3,497,231
103 15-07-2015 00:01 a glooth bandit 273 -3,534,208
104 10-07-2015 03:28 a draken spellweaver 271 -3,460,512
105 09-07-2015 23:35 a draken spellweaver 271 -3,460,512
106 08-07-2015 07:03 a lizard zaogun 272 -3,497,231
107 06-07-2015 20:15 a draken warmaster 272 -3,497,231
108 06-07-2015 07:31 a draken warmaster 273 -3,534,208
109 05-07-2015 22:15 a draken spellweaver 273 -3,534,208
110 04-07-2015 05:54 a draken spellweaver 274 -3,571,443
111 01-07-2015 19:38 a draken warmaster 275 -3,608,939
112 30-06-2015 07:47 Gaz'haragoth 274 -3,571,443
113 30-06-2015 07:30 a minion of Gaz'haragoth 275 -3,608,939
114 30-06-2015 05:41 Gaz'haragoth 276 -3,646,695
115 27-06-2015 17:03 a lizard high guard 276 -3,646,695
116 27-06-2015 03:24 a frazzlemaw 277 -3,684,713
117 20-06-2015 07:12 a guzzlemaw 272 -3,497,231
118 19-06-2015 03:36 a draken warmaster 272 -3,497,231
119 18-06-2015 06:20 a draken spellweaver 273 -3,534,208
120 17-06-2015 00:55 a silencer 274 -3,571,443
121 16-06-2015 06:37 a lizard high guard 274 -3,571,443
122 09-06-2015 08:19 a serpent spawn 272 -3,497,231
123 03-06-2015 22:21 Gaz'haragoth 270 -3,424,050
124 01-06-2015 05:47 a medusa 270 -3,424,050
125 25-05-2015 18:14 a lizard high guard 268 -3,351,895
126 25-05-2015 07:18 a lizard dragon priest 265 -3,245,567
127 23-05-2015 14:24 a lizard high guard 263 -3,175,942
128 23-05-2015 07:13 a lizard high guard 263 -3,175,942
129 23-05-2015 07:01 a lizard high guard 263 -3,175,942
130 23-05-2015 06:39 a lizard zaogun 263 -3,175,942
131 23-05-2015 06:17 a lizard high guard 263 -3,175,942
132 23-05-2015 05:30 a lizard legionnaire 262 -3,141,504
133 23-05-2015 04:42 a lizard legionnaire 262 -3,141,504
134 23-05-2015 03:59 a lizard high guard 262 -3,141,504
135 23-05-2015 03:20 a lizard high guard 261 -3,107,316
136 23-05-2015 00:42 a lizard legionnaire 262 -3,141,504
137 22-05-2015 19:38 a lizard high guard 261 -3,107,316
138 22-05-2015 19:21 a lizard legionnaire 261 -3,107,316
139 22-05-2015 16:51 a quara hydromancer scout 261 -3,107,316
140 22-05-2015 01:03 a serpent spawn 262 -3,141,504
141 21-05-2015 23:21 a serpent spawn 262 -3,141,504
142 21-05-2015 22:24 a medusa 262 -3,141,504
143 21-05-2015 21:50 a serpent spawn 262 -3,141,504
144 21-05-2015 01:16 a medusa 259 -3,039,683
145 20-05-2015 22:24 a serpent spawn 259 -3,039,683
146 20-05-2015 19:30 a medusa 258 -3,006,236
147 20-05-2015 16:37 a lizard high guard 259 -3,039,683
148 17-05-2015 19:43 a demon outcast 258 -3,006,236
149 14-05-2015 23:50 a serpent spawn 258 -3,006,236
150 14-05-2015 20:30 a serpent spawn 259 -3,039,683
151 14-05-2015 20:16 a serpent spawn 259 -3,039,683
152 12-05-2015 23:09 a serpent spawn 257 -2,973,035
153 11-05-2015 22:07 a lizard legionnaire 252 -2,810,678
154 05-05-2015 04:44 a lizard high guard 249 -2,716,151
155 05-05-2015 00:38 a lizard high guard 250 -2,747,421
156 04-05-2015 22:34 a medusa 250 -2,747,421
157 04-05-2015 08:30 a serpent spawn 250 -2,747,421
158 28-04-2015 17:39 a behemoth 248 -2,685,118
159 28-04-2015 01:24 Gaz'haragoth 248 -2,685,118
160 25-04-2015 02:57 a behemoth 249 -2,716,151
161 21-04-2015 04:15 a draken elite 248 -2,685,118
162 03-04-2015 03:24 a humongous fungus 241 -2,474,454
163 19-03-2015 15:18 a behemoth 239 -2,416,349
164 19-03-2015 01:22 a hellspawn 239 -2,416,349
165 01-03-2015 07:42 a choking fear 238 -2,387,639
166 28-02-2015 19:44 a behemoth 238 -2,387,639
167 21-02-2015 05:21 a shiversleep 237 -2,359,157
168 29-01-2015 15:03 a serpent spawn 231 -2,192,988
169 29-01-2015 14:34 a hydra 232 -2,220,125
170 29-01-2015 00:11 a behemoth 232 -2,220,125
171 24-01-2015 20:10 a hydra 232 -2,220,125
172 22-01-2015 22:27 a hydra 232 -2,220,125
173 18-01-2015 20:33 a frazzlemaw 230 -2,166,072
174 16-01-2015 16:50 a hydra 229 -2,139,377
175 16-01-2015 00:17 a hideous fungus 230 -2,166,072
176 06-01-2015 02:13 Ceifado Sinistroo (*)Check at Tibia.com 227 -2,086,643
177 04-01-2015 18:44 a hydra 227 -2,086,643
178 04-01-2015 15:44 a behemoth 227 -2,086,643
179 03-01-2015 04:14 a behemoth 226 -2,060,603
180 29-12-2014 14:43 a demon 222 -1,958,598
181 27-12-2014 11:56 a demon 221 -1,933,632
182 27-12-2014 03:56 a demon 221 -1,933,632
183 26-12-2014 21:49 a demon 221 -1,933,632
184 23-12-2014 20:18 a wyrm 220 -1,908,878
185 20-12-2014 20:29 a behemoth 219 -1,884,335
186 16-12-2014 02:52 a massive earth elemental 216 -1,811,964
187 13-12-2014 23:15 a behemoth 215 -1,788,257
188 12-12-2014 00:14 a ghastly dragon 214 -1,764,756
189 11-12-2014 04:59 a frazzlemaw 214 -1,764,756
190 07-12-2014 19:45 a demon 214 -1,764,756
191 07-12-2014 15:19 a demon 214 -1,764,756
192 05-12-2014 02:02 a lizard high guard 213 -1,741,462
193 01-12-2014 20:09 a serpent spawn 211 -1,695,486
194 01-12-2014 03:21 a serpent spawn 211 -1,695,486
195 01-12-2014 00:22 a yielothax 212 -1,718,372
196 30-11-2014 22:29 a lizard high guard 213 -1,741,462
197 30-11-2014 22:21 a draken warmaster 214 -1,764,756
198 30-11-2014 19:07 a lizard high guard 214 -1,764,756
199 29-11-2014 04:48 a demon outcast 214 -1,764,756
200 28-11-2014 22:49 a draken warmaster 214 -1,764,756
201 27-11-2014 22:52 a draken spellweaver 214 -1,764,756
202 20-11-2014 14:29 a frazzlemaw 210 -1,672,803
203 13-11-2014 14:05 a medusa 206 -1,584,086
204 12-11-2014 19:28 a frazzlemaw 207 -1,605,965
205 04-11-2014 13:35 a lizard high guard 202 -1,498,545
206 01-11-2014 01:21 a serpent spawn 200 -1,456,949
207 30-10-2014 01:06 a medusa 199 -1,436,441
208 28-10-2014 16:56 a giant spider 200 -1,456,949
209 27-10-2014 05:03 Hinata Hy uga (*)Check at Tibia.com 200 -1,456,949
210 27-10-2014 03:58 a lizard zaogun 200 -1,456,949
211 26-10-2014 07:10 a medusa 200 -1,456,949
212 21-10-2014 13:09 a frazzlemaw 198 -1,416,125
213 18-10-2014 17:22 a medusa 197 -1,396,001
214 15-10-2014 21:50 a serpent spawn 196 -1,376,067
215 14-10-2014 17:41 a medusa 196 -1,376,067
216 13-10-2014 04:08 a medusa 196 -1,376,067
217 09-10-2014 17:43 Yashirus (*)Check at Tibia.com 192 -1,298,219
218 02-10-2014 05:45 a medusa 189 -1,241,789
219 01-10-2014 01:55 King Daved (*)Check at Tibia.com 189 -1,241,789
220 26-09-2014 19:27 a souleater 187 -1,205,087
221 06-04-2014 18:03 Deconha Underground (*)Check at Tibia.com 186 -1,187,009
222 21-03-2014 21:35 Popotiinho (*)Check at Tibia.com 186 -1,187,009

Number of death: 222
Experience lost: 1,261,912,808
Level of character without dying: 599
Killed by players: 6

No blacklist entries.


Login to add report

Search guild or character